Time;durP1;ratioP1;P1;durP2;ratioP2;P2;SDS_P1;SDS_P2;PMS_P1;PMS_P2;Temp;Humidity;BMP_temperature;BMP_pressure;BME280_temperature;BME280_humidity;BME280_pressure;Samples;Min_cycle;Max_cycle;Signal;HPM_P1;HPM_P2
2023/09/12 00:08:38;;;;;;;9.88;6.65;;;;;;;21.24;70.11;98734.56;7381484;39;21179;31
2023/09/12 00:19:18;;;;;;;9.50;5.60;;;;;;;21.20;70.90;98728.72;7410797;39;20498;31
2023/09/12 00:24:53;;;;;;;10.73;6.20;;;;;;;21.11;70.66;98719.19;7340582;39;20631;31
2023/09/12 00:30:31;;;;;;;11.82;5.70;;;;;;;21.16;70.34;98713.84;7298957;39;20249;31
2023/09/12 00:41:14;;;;;;;9.38;5.70;;;;;;;21.02;71.49;98706.97;7371165;39;20537;31
2023/09/12 00:46:46;;;;;;;11.48;5.93;;;;;;;21.02;70.99;98704.22;7356502;39;20255;31
2023/09/12 00:52:22;;;;;;;7.60;5.97;;;;;;;20.92;72.09;98707.63;7319855;39;20419;31
2023/09/12 00:58:09;;;;;;;;;;;;;;;;;;;;;
2023/09/12 01:03:19;;;;;;;11.70;6.18;;;;;;;20.92;71.54;98699.41;7086888;40;20232;31
2023/09/12 01:08:54;;;;;;;10.35;5.85;;;;;;;20.78;72.62;98698.03;7281679;39;20251;31
2023/09/12 01:14:34;;;;;;;9.98;6.20;;;;;;;20.72;72.62;98684.47;7303666;39;20329;31
2023/09/12 01:20:10;;;;;;;8.38;5.78;;;;;;;20.73;72.02;98688.88;7288325;39;20241;31
2023/09/12 01:25:51;;;;;;;10.90;6.10;;;;;;;20.53;73.83;98690.16;7303324;39;20258;31
2023/09/12 01:31:27;;;;;;;12.60;6.00;;;;;;;20.61;72.23;98687.03;7331902;39;20262;31
2023/09/12 01:36:48;;;;;;;10.07;6.00;;;;;;;20.71;72.66;98691.03;7314792;39;20460;31
2023/09/12 01:42:24;;;;;;;14.06;5.66;;;;;;;20.76;73.01;98688.38;7319068;39;20251;31
2023/09/12 01:48:01;;;;;;;10.45;5.85;;;;;;;20.89;71.63;98691.66;7297770;40;20259;31
2023/09/12 01:53:31;;;;;;;9.93;6.23;;;;;;;20.85;72.05;98692.38;7335284;39;20232;31
2023/09/12 01:59:06;;;;;;;12.10;5.62;;;;;;;21.03;71.39;98684.81;7299621;39;20308;31
2023/09/12 02:04:42;;;;;;;12.15;6.00;;;;;;;21.16;71.69;98682.84;7288665;39;20296;31
2023/09/12 02:15:25;;;;;;;12.30;5.80;;;;;;;21.27;71.50;98691.03;7309932;39;20520;31
2023/09/12 02:26:07;;;;;;;10.77;5.95;;;;;;;21.38;71.73;98692.00;7354443;39;20360;31
2023/09/12 02:31:42;;;;;;;12.00;6.55;;;;;;;21.47;70.90;98691.34;7345540;39;20258;31
2023/09/12 02:37:03;;;;;;;13.34;6.86;;;;;;;21.47;71.07;98701.50;7340613;39;20236;31
2023/09/12 02:42:39;;;;;;;11.20;6.62;;;;;;;21.36;71.50;98695.03;7336188;39;20350;31
2023/09/12 02:48:16;;;;;;;10.80;6.65;;;;;;;21.29;72.02;98685.28;7297877;39;20259;31
2023/09/12 02:53:51;;;;;;;11.57;6.40;;;;;;;21.29;71.88;98688.00;7261401;40;20792;31
2023/09/12 02:59:25;;;;;;;7.50;5.95;;;;;;;21.25;73.39;98701.41;7329891;39;20256;31
2023/09/12 03:05:01;;;;;;;12.95;6.95;;;;;;;21.12;72.75;98701.69;7299145;40;20256;31
2023/09/12 03:10:20;;;;;;;12.95;6.75;;;;;;;21.11;74.00;98700.84;7312389;39;20244;31
2023/09/12 03:15:57;;;;;;;8.98;6.58;;;;;;;21.12;73.05;98696.19;7312679;39;20334;31
2023/09/12 03:21:32;;;;;;;9.90;6.90;;;;;;;21.26;73.17;98689.34;7281842;39;20576;31
2023/09/12 03:42:33;;;;;;;10.70;6.73;;;;;;;21.29;73.53;98668.81;7358934;39;20409;31
2023/09/12 03:48:08;;;;;;;10.70;6.45;;;;;;;21.28;73.51;98681.69;7400256;39;20262;31
2023/09/12 03:53:44;;;;;;;11.60;6.70;;;;;;;21.32;73.28;98676.56;7341487;39;20279;31
2023/09/12 03:59:15;;;;;;;13.80;6.40;;;;;;;21.38;72.61;98668.16;7287312;39;21105;31
2023/09/12 04:04:51;;;;;;;12.60;6.97;;;;;;;21.34;74.02;98647.81;7217589;40;20388;31
2023/09/12 04:10:28;;;;;;;9.00;6.55;;;;;;;21.24;73.93;98663.28;7237711;39;20850;31
2023/09/12 04:15:46;;;;;;;10.68;6.80;;;;;;;21.25;74.14;98667.66;7208802;40;20246;31
2023/09/12 04:21:07;;;;;;;9.27;6.23;;;;;;;21.25;73.42;98673.16;7241549;39;20268;31
2023/09/12 04:31:48;;;;;;;12.20;7.40;;;;;;;21.26;73.86;98663.84;7340451;39;20273;31
2023/09/12 04:37:24;;;;;;;12.15;6.45;;;;;;;21.10;74.63;98658.09;7374649;39;20262;31
2023/09/12 04:43:00;;;;;;;10.75;7.15;;;;;;;20.86;75.15;98663.91;7338002;39;20240;31
2023/09/12 04:48:35;;;;;;;9.70;6.95;;;;;;;21.03;74.01;98673.84;7360605;39;20266;31
2023/09/12 04:54:10;;;;;;;12.35;7.80;;;;;;;21.09;73.79;98677.50;7311990;39;20316;31
2023/09/12 04:59:45;;;;;;;7.90;7.10;;;;;;;21.05;73.87;98690.03;7289339;39;20327;31
2023/09/12 05:05:23;;;;;;;11.76;7.54;;;;;;;20.97;73.72;98676.75;7232465;39;20455;31
2023/09/12 05:10:59;;;;;;;18.07;7.40;;;;;;;20.93;73.85;98689.28;7222044;40;20241;31
2023/09/12 05:16:34;;;;;;;13.50;7.45;;;;;;;20.94;73.51;98691.75;7274203;39;20381;31
2023/09/12 05:22:10;;;;;;;11.65;7.10;;;;;;;20.82;73.43;98688.25;7284516;39;20405;31
2023/09/12 05:27:45;;;;;;;9.80;7.15;;;;;;;20.81;73.68;98696.69;7306214;39;20240;31
2023/09/12 05:33:09;;;;;;;13.14;6.90;;;;;;;20.83;73.13;98703.63;7295178;39;20261;31
2023/09/12 05:43:50;;;;;;;9.82;7.12;;;;;;;20.38;75.16;98689.84;7340746;39;21026;31
2023/09/12 05:49:10;;;;;;;9.40;7.20;;;;;;;20.36;74.86;98708.38;7373432;39;20329;31
2023/09/12 05:54:31;;;;;;;12.80;7.18;;;;;;;20.48;75.66;98730.28;7388823;39;20235;31
2023/09/12 06:00:10;;;;;;;11.03;6.87;;;;;;;20.57;75.93;98726.94;7338817;39;20361;31
2023/09/12 06:05:31;;;;;;;9.80;7.36;;;;;;;20.60;75.37;98737.38;7286962;39;20300;31
2023/09/12 06:11:06;;;;;;;12.35;7.60;;;;;;;20.72;75.04;98740.09;7298479;40;20256;31
2023/09/12 06:16:45;;;;;;;11.98;7.70;;;;;;;20.79;75.14;98734.47;7339466;39;21072;31
2023/09/12 06:22:08;;;;;;;9.95;7.50;;;;;;;20.93;74.98;98744.09;7294824;39;20336;31
2023/09/12 06:33:05;;;;;;;13.15;7.90;;;;;;;21.23;74.38;98741.94;7377367;39;20355;31
2023/09/12 06:38:25;;;;;;;16.63;7.63;;;;;;;21.39;73.48;98732.91;7295135;39;20632;31
2023/09/12 06:44:05;;;;;;;16.00;7.66;;;;;;;21.51;73.50;98733.66;7324999;39;20464;31
2023/09/12 06:54:44;;;;;;;14.05;7.28;;;;;;;21.76;72.64;98735.19;7367982;39;20278;31
2023/09/12 07:00:06;;;;;;;11.27;6.78;;;;;;;21.90;72.78;98745.53;7341807;39;21104;31
2023/09/12 07:05:26;;;;;;;15.23;8.00;;;;;;;22.06;72.09;98754.88;7359006;39;20345;31
2023/09/12 07:11:06;;;;;;;11.65;6.80;;;;;;;22.23;71.67;98758.44;7344640;39;20256;31
2023/09/12 07:16:42;;;;;;;13.55;7.20;;;;;;;22.43;71.55;98753.22;7369293;39;21088;31
2023/09/12 07:22:03;;;;;;;10.30;7.00;;;;;;;22.61;70.04;98745.75;7278905;40;20246;31
2023/09/12 07:27:39;;;;;;;12.75;6.87;;;;;;;22.68;69.36;98746.41;7346851;39;20351;31
2023/09/12 07:33:14;;;;;;;16.20;7.40;;;;;;;22.80;69.69;98730.66;7309794;39;20265;31
2023/09/12 07:43:54;;;;;;;15.35;7.22;;;;;;;23.09;68.43;98740.31;7301464;39;21136;31
2023/09/12 07:49:17;;;;;;;10.40;7.25;;;;;;;23.22;68.44;98739.91;7314871;39;20251;31
2023/09/12 07:54:38;;;;;;;13.40;6.92;;;;;;;23.36;68.74;98749.41;7347478;39;20261;31
2023/09/12 08:00:14;;;;;;;10.07;6.87;;;;;;;23.52;68.01;98746.84;7155113;39;20233;31
2023/09/12 08:05:35;;;;;;;11.30;6.30;;;;;;;23.67;67.10;98750.53;7342760;39;20237;31
2023/09/12 08:11:06;;;;;;;11.63;6.70;;;;;;;23.81;66.71;98756.44;7299557;39;20286;31
2023/09/12 08:16:42;;;;;;;12.88;6.68;;;;;;;24.01;66.03;98755.75;7258659;40;20299;31
2023/09/12 08:22:18;;;;;;;13.32;6.97;;;;;;;24.15;65.56;98754.22;7287204;39;20259;31
2023/09/12 08:27:38;;;;;;;10.15;6.45;;;;;;;24.29;65.42;98758.19;7317755;39;20289;31
2023/09/12 08:38:19;;;;;;;14.63;7.20;;;;;;;24.62;66.16;98754.22;7359915;39;20307;31
2023/09/12 08:43:40;;;;;;;15.03;7.07;;;;;;;24.79;65.39;98757.66;7333056;39;20289;31
2023/09/12 08:49:28;;;;;;;12.57;7.40;;;;;;;24.94;65.18;98760.47;7281430;40;20287;31
2023/09/12 08:55:05;;;;;;;12.56;6.36;;;;;;;25.08;64.52;98767.16;7328328;39;20417;31
2023/09/12 09:00:40;;;;;;;9.20;6.50;;;;;;;25.20;64.47;98755.84;7328631;39;20309;31
2023/09/12 09:06:15;;;;;;;10.10;7.00;;;;;;;25.44;64.25;98767.25;7338646;39;20456;31
2023/09/12 09:16:54;;;;;;;11.65;7.10;;;;;;;25.78;63.51;98753.75;7332032;39;21050;31
2023/09/12 09:27:45;;;;;;;13.55;6.97;;;;;;;26.22;61.98;98742.97;7365846;39;21535;31
2023/09/12 09:33:22;;;;;;;10.95;6.97;;;;;;;26.33;61.42;98742.66;7342637;39;20356;31
2023/09/12 09:39:03;;;;;;;9.70;7.30;;;;;;;26.59;61.12;98739.84;7342431;39;20252;31
2023/09/12 09:44:33;;;;;;;11.13;7.10;;;;;;;26.84;61.66;98723.16;7318354;39;20256;31
2023/09/12 09:50:10;;;;;;;9.80;6.80;;;;;;;27.02;60.35;98736.37;7249206;40;20355;31
2023/09/12 10:01:07;;;;;;;15.47;7.30;;;;;;;27.41;59.54;98738.34;7294941;39;21068;31
2023/09/12 10:11:48;;;;;;;10.73;6.67;;;;;;;27.85;57.48;98738.31;7303175;39;21138;31
2023/09/12 10:22:28;;;;;;;9.65;6.45;;;;;;;28.13;56.94;98724.50;7330795;39;21376;31
2023/09/12 10:33:09;;;;;;;9.20;6.75;;;;;;;28.64;55.52;98719.25;7292320;39;21215;31
2023/09/12 10:38:44;;;;;;;10.80;5.80;;;;;;;28.84;55.42;98714.56;7318867;39;20283;31
2023/09/12 10:49:34;;;;;;;12.43;6.07;;;;;;;29.26;54.11;98717.34;7257820;40;21219;31
2023/09/12 10:55:14;;;;;;;8.45;6.32;;;;;;;29.43;53.20;98705.72;7272623;39;20516;31
2023/09/12 11:00:38;;;;;;;6.30;5.70;;;;;;;29.52;52.21;98706.69;7277335;40;20252;31
2023/09/12 11:06:35;;;;;;;8.48;6.07;;;;;;;29.64;52.35;98701.47;7301189;39;20299;31
2023/09/12 11:12:08;;;;;;;9.20;6.05;;;;;;;29.82;52.16;98695.06;7315545;39;20353;31
2023/09/12 11:17:27;;;;;;;9.70;6.15;;;;;;;29.82;52.23;98713.69;7264327;40;20264;31
2023/09/12 11:23:01;;;;;;;7.46;5.82;;;;;;;29.89;51.42;98705.81;7297193;40;20538;31
2023/09/12 11:28:37;;;;;;;10.57;6.03;;;;;;;30.13;50.91;98695.38;7264653;39;20249;31
2023/09/12 11:34:09;;;;;;;8.73;6.07;;;;;;;30.34;49.77;98695.78;7297023;39;20262;31
2023/09/12 11:39:46;;;;;;;8.82;6.00;;;;;;;30.49;49.28;98697.50;7265325;39;20280;31
2023/09/12 11:45:24;;;;;;;8.00;5.60;;;;;;;30.66;48.70;98698.53;7326729;39;20255;31
2023/09/12 11:51:01;;;;;;;7.72;5.50;;;;;;;30.58;48.87;98688.13;7251380;40;20276;31
2023/09/12 11:56:37;;;;;;;11.15;6.10;;;;;;;30.64;48.10;98683.25;7290392;39;20292;31
2023/09/12 12:02:12;;;;;;;8.95;5.70;;;;;;;30.74;48.01;98683.06;7367952;39;20329;31
2023/09/12 12:07:51;;;;;;;8.15;5.65;;;;;;;30.85;47.58;98681.69;7249011;39;20522;31
2023/09/12 12:13:33;;;;;;;7.12;5.60;;;;;;;31.02;48.49;98681.91;7262818;40;20257;31
2023/09/12 12:19:08;;;;;;;7.00;5.15;;;;;;;31.11;46.98;98677.22;7256611;40;20276;31
2023/09/12 12:24:52;;;;;;;7.25;5.20;;;;;;;31.23;46.76;98666.38;7289055;39;20300;31
2023/09/12 12:30:29;;;;;;;8.95;5.90;;;;;;;31.28;46.02;98671.84;7269506;40;20462;31
2023/09/12 12:36:01;;;;;;;7.18;5.18;;;;;;;31.39;45.64;98666.81;7287758;39;20267;31
2023/09/12 12:41:39;;;;;;;7.60;5.60;;;;;;;31.52;46.44;98657.59;7258215;40;20245;31
2023/09/12 12:47:16;;;;;;;7.05;5.15;;;;;;;31.70;45.00;98661.34;7339294;39;20343;31
2023/09/12 12:52:51;;;;;;;8.84;5.52;;;;;;;31.84;45.35;98642.59;7339216;39;20271;31
2023/09/12 12:58:30;;;;;;;11.90;5.60;;;;;;;32.04;45.22;98643.97;7329410;39;20312;31
2023/09/12 13:04:07;;;;;;;8.18;5.15;;;;;;;31.59;45.66;98641.28;7274532;40;20409;31
2023/09/12 13:09:42;;;;;;;7.95;5.55;;;;;;;31.21;44.52;98626.84;7315790;39;20330;31
2023/09/12 13:15:18;;;;;;;5.68;4.65;;;;;;;31.24;44.91;98623.44;7308539;39;20256;31
2023/09/12 13:20:53;;;;;;;6.35;4.47;;;;;;;31.42;43.47;98616.03;7295820;39;20256;31
2023/09/12 13:26:29;;;;;;;7.90;4.25;;;;;;;31.24;41.40;98617.06;7295060;39;20275;31
2023/09/12 13:37:12;;;;;;;5.97;4.45;;;;;;;30.85;43.41;98600.94;7268417;40;20269;31
2023/09/12 13:42:33;;;;;;;5.25;4.75;;;;;;;30.75;44.30;98590.06;7260358;40;20287;31
2023/09/12 13:47:53;;;;;;;5.46;4.90;;;;;;;30.79;44.97;98585.53;7277369;39;20353;31
2023/09/12 13:53:32;;;;;;;7.05;4.85;;;;;;;30.81;43.72;98583.22;7339693;39;20283;31
2023/09/12 13:58:53;;;;;;;7.34;5.00;;;;;;;30.79;45.09;98588.31;7354258;39;20275;31
2023/09/12 14:04:27;;;;;;;7.25;4.65;;;;;;;30.77;43.56;98587.78;7339834;39;20275;31
2023/09/12 14:15:08;;;;;;;7.55;4.60;;;;;;;30.98;42.58;98575.03;7312991;39;20303;31
2023/09/12 14:25:48;;;;;;;5.10;4.30;;;;;;;31.29;43.40;98567.59;7332760;39;20287;31
2023/09/12 14:36:29;;;;;;;5.40;4.32;;;;;;;31.46;42.67;98560.50;7403002;39;20271;31
2023/09/12 14:47:10;;;;;;;6.93;4.60;;;;;;;31.36;42.25;98566.34;7401436;39;20273;31
2023/09/12 14:52:47;;;;;;;8.75;4.62;;;;;;;31.52;41.79;98560.06;7337498;39;20259;31
2023/09/12 14:58:07;;;;;;;7.90;4.70;;;;;;;31.43;40.88;98558.34;7287038;39;20374;31
2023/09/12 15:03:28;;;;;;;5.57;4.85;;;;;;;31.19;41.91;98547.56;7300725;40;20271;31
2023/09/12 15:09:06;;;;;;;7.10;4.50;;;;;;;30.85;42.00;98545.28;7273120;40;20952;31
2023/09/12 15:14:26;;;;;;;5.87;4.70;;;;;;;30.80;42.56;98537.06;7249039;40;20592;31
2023/09/12 15:20:05;;;;;;;7.18;4.40;;;;;;;30.63;43.28;98542.50;7332329;39;20262;31
2023/09/12 15:31:16;;;;;;;17.10;5.20;;;;;;;30.59;44.24;98527.53;7239080;40;20258;31
2023/09/12 15:36:52;;;;;;;5.40;4.82;;;;;;;30.45;44.15;98530.37;7261110;40;20253;31
2023/09/12 15:42:29;;;;;;;8.95;5.00;;;;;;;30.25;45.12;98533.56;7277441;40;20260;31
2023/09/12 15:48:05;;;;;;;6.80;5.30;;;;;;;30.06;45.23;98533.66;7304996;39;20275;31
2023/09/12 15:53:41;;;;;;;7.00;5.32;;;;;;;29.86;45.18;98540.44;7288017;39;20481;31
2023/09/12 15:59:18;;;;;;;9.10;5.45;;;;;;;29.84;46.10;98551.03;7279960;39;20327;31
2023/09/12 16:04:39;;;;;;;9.36;5.10;;;;;;;29.87;45.76;98547.69;7247864;40;20335;31
2023/09/12 16:10:15;;;;;;;8.90;5.20;;;;;;;29.91;47.15;98537.59;7257724;40;20362;31
2023/09/12 16:15:53;;;;;;;6.43;4.90;;;;;;;29.90;48.22;98541.50;7232994;40;20465;31
2023/09/12 16:21:13;;;;;;;4.95;4.43;;;;;;;30.01;48.55;98549.66;7262260;40;20270;31
2023/09/12 16:31:52;;;;;;;8.15;5.10;;;;;;;29.80;50.13;98566.69;7316172;39;20336;31
2023/09/12 16:42:17;;;;;;;7.03;4.78;;;;;;;29.44;48.19;98569.28;7311511;39;20287;31
2023/09/12 16:47:54;;;;;;;7.10;4.72;;;;;;;29.24;48.62;98563.25;7340702;39;20271;31
2023/09/12 16:53:17;;;;;;;6.95;4.75;;;;;;;29.10;48.00;98555.69;7329826;39;20407;31
2023/09/12 16:58:51;;;;;;;5.02;4.40;;;;;;;28.94;48.01;98562.63;7378565;39;20409;31
2023/09/12 17:04:28;;;;;;;6.30;4.50;;;;;;;28.72;47.05;98547.72;7317080;39;20248;31
2023/09/12 17:10:03;;;;;;;7.55;4.20;;;;;;;28.52;46.56;98532.97;7316567;39;21279;31
2023/09/12 17:15:24;;;;;;;4.65;4.20;;;;;;;28.41;46.04;98539.81;7279890;39;20370;31
2023/09/12 17:21:00;;;;;;;6.43;5.03;;;;;;;28.28;47.36;98537.78;7332443;39;20411;31
2023/09/12 17:26:35;;;;;;;6.97;4.50;;;;;;;28.13;48.42;98537.97;7318985;39;20351;31
2023/09/12 17:32:11;;;;;;;6.82;4.90;;;;;;;27.97;48.59;98559.47;7279019;40;20276;31
2023/09/12 17:42:50;;;;;;;6.57;4.32;;;;;;;27.76;46.20;98558.06;7267262;39;20692;31
2023/09/12 17:48:10;;;;;;;5.37;3.90;;;;;;;27.68;45.91;98554.00;7323453;39;20248;31
2023/09/12 17:53:33;;;;;;;6.07;4.43;;;;;;;27.60;46.48;98545.50;7349045;39;20258;31
2023/09/12 17:59:10;;;;;;;4.85;4.30;;;;;;;27.52;45.89;98544.19;7305369;39;20248;31
2023/09/12 18:04:31;;;;;;;5.47;3.80;;;;;;;27.41;45.64;98564.75;7256213;40;20249;31
2023/09/12 18:10:06;;;;;;;4.70;3.50;;;;;;;27.30;44.76;98583.41;7269793;40;20287;31
2023/09/12 18:15:44;;;;;;;4.40;3.80;;;;;;;27.23;43.94;98587.62;7266941;40;20423;31
2023/09/12 18:21:04;;;;;;;5.56;3.70;;;;;;;27.26;42.46;98610.00;7257847;40;20427;31
2023/09/12 18:26:25;;;;;;;4.90;3.42;;;;;;;27.24;42.68;98611.44;7335084;39;20262;31
2023/09/12 18:32:02;;;;;;;5.60;3.70;;;;;;;27.15;43.29;98624.22;7353310;39;20255;31
2023/09/12 18:37:37;;;;;;;4.95;3.45;;;;;;;27.09;42.84;98641.97;7289208;39;20640;31
2023/09/12 18:42:59;;;;;;;3.97;3.27;;;;;;;27.06;42.30;98643.38;7269758;39;20261;31
2023/09/12 18:48:40;;;;;;;7.80;3.60;;;;;;;27.03;42.00;98648.66;7184730;39;20287;31
2023/09/12 18:54:15;;;;;;;4.56;4.02;;;;;;;26.98;44.53;98638.47;7264613;39;20290;31
2023/09/12 19:04:49;;;;;;;8.30;4.00;;;;;;;26.99;46.17;98653.94;7337066;39;20260;31
2023/09/12 19:10:27;;;;;;;4.90;4.40;;;;;;;26.88;47.94;98663.41;7297721;40;20377;31
2023/09/12 19:16:05;;;;;;;8.02;4.57;;;;;;;26.84;49.68;98673.38;7307482;39;20264;31
2023/09/12 19:26:47;;;;;;;6.45;4.45;;;;;;;26.58;52.66;98680.97;7267751;39;20253;31
2023/09/12 19:32:10;;;;;;;8.95;4.35;;;;;;;26.45;54.22;98689.87;7295087;39;20248;31
2023/09/12 19:37:31;;;;;;;5.22;4.05;;;;;;;26.28;53.62;98678.31;7293155;39;20483;31
2023/09/12 19:43:11;;;;;;;5.83;3.90;;;;;;;26.07;53.72;98682.19;7316299;39;20263;31
2023/09/12 19:48:46;;;;;;;5.40;3.82;;;;;;;25.91;54.79;98673.13;7291010;39;20312;31
2023/09/12 19:54:12;;;;;;;5.10;4.20;;;;;;;25.86;55.04;98685.00;7239270;39;21049;31
2023/09/12 20:04:53;;;;;;;5.30;3.80;;;;;;;25.54;56.67;98684.44;7360828;39;20282;31
2023/09/12 20:10:30;;;;;;;5.20;3.40;;;;;;;25.47;57.01;98694.91;7360015;39;20260;31
2023/09/12 20:21:09;;;;;;;4.47;3.10;;;;;;;25.25;58.40;98699.88;7322060;39;20246;31
2023/09/12 20:26:46;;;;;;;4.95;3.35;;;;;;;25.18;58.91;98697.37;7281101;39;20257;31
2023/09/12 20:32:25;;;;;;;4.78;3.05;;;;;;;25.03;59.29;98698.19;7285528;39;20259;31
2023/09/12 20:38:04;;;;;;;5.00;3.35;;;;;;;24.94;58.78;98719.09;7282465;39;20316;31
2023/09/12 20:43:40;;;;;;;5.55;3.33;;;;;;;24.79;60.53;98726.47;7281012;39;20455;31
2023/09/12 20:49:01;;;;;;;4.20;2.90;;;;;;;24.71;60.56;98760.88;7310158;39;20240;31
2023/09/12 20:54:38;;;;;;;3.65;2.80;;;;;;;24.64;59.64;98769.41;7276076;40;20508;31
2023/09/12 20:59:58;;;;;;;3.20;2.62;;;;;;;24.65;59.37;98800.56;7368608;39;20257;31
2023/09/12 21:05:32;;;;;;;3.35;2.70;;;;;;;24.63;59.11;98814.63;7378029;39;20243;31
2023/09/12 21:11:11;;;;;;;4.53;3.10;;;;;;;24.64;59.85;98827.31;7367454;39;20429;31
2023/09/12 21:16:31;;;;;;;3.22;2.92;;;;;;;24.69;58.98;98830.09;7311441;39;20330;31
2023/09/12 21:22:06;;;;;;;4.18;2.70;;;;;;;24.71;60.38;98824.28;7336776;39;20536;31
2023/09/12 21:27:42;;;;;;;3.17;2.87;;;;;;;24.73;60.52;98832.31;7336607;39;20308;31
2023/09/12 21:33:03;;;;;;;3.83;2.87;;;;;;;24.67;59.91;98836.97;7327794;39;20244;31
2023/09/12 21:38:39;;;;;;;3.40;2.85;;;;;;;24.65;59.47;98844.69;7336172;39;20848;31
2023/09/12 21:44:14;;;;;;;3.58;3.13;;;;;;;24.63;60.78;98857.87;7340984;39;20348;31
2023/09/12 21:49:50;;;;;;;3.50;3.20;;;;;;;24.63;59.48;98852.38;7221399;40;20768;31
2023/09/12 21:55:25;;;;;;;5.40;3.00;;;;;;;24.64;59.92;98865.06;7208735;40;20768;31
2023/09/12 22:01:06;;;;;;;4.85;2.85;;;;;;;24.50;60.66;98875.72;7199387;40;20250;31
2023/09/12 22:06:40;;;;;;;3.60;2.97;;;;;;;24.36;61.80;98885.53;7267528;40;20323;31
2023/09/12 22:11:57;;;;;;;4.23;3.30;;;;;;;24.51;61.13;98890.31;7096719;39;20336;31
2023/09/12 22:17:28;;;;;;;3.40;2.70;;;;;;;24.51;60.40;98896.69;7318086;39;20257;31
2023/09/12 22:23:02;;;;;;;6.90;3.20;;;;;;;24.57;61.36;98906.62;7298732;39;20271;31
2023/09/12 22:28:25;;;;;;;4.23;2.87;;;;;;;24.44;61.08;98915.34;7298337;40;20244;31
2023/09/12 22:34:00;;;;;;;3.45;2.60;;;;;;;24.24;61.95;98916.00;7303770;39;20255;31
2023/09/12 22:39:20;;;;;;;5.10;2.70;;;;;;;24.15;62.30;98927.72;7290068;39;20455;31
2023/09/12 22:50:01;;;;;;;3.20;2.80;;;;;;;24.02;63.81;98917.97;7320825;39;21642;31
2023/09/12 22:55:37;;;;;;;3.40;2.73;;;;;;;24.04;62.95;98924.06;7271124;39;20246;31
2023/09/12 23:00:58;;;;;;;3.60;3.00;;;;;;;23.95;63.36;98925.63;7300397;40;20358;31
2023/09/12 23:06:34;;;;;;;3.75;3.00;;;;;;;23.94;64.18;98921.19;7308818;39;20250;31
2023/09/12 23:11:55;;;;;;;3.13;2.83;;;;;;;23.96;63.60;98918.19;7297569;39;20247;31
2023/09/12 23:17:15;;;;;;;4.30;3.30;;;;;;;23.91;63.20;98930.00;7297326;40;20333;31
2023/09/12 23:22:36;;;;;;;4.15;3.00;;;;;;;23.92;63.54;98928.03;7297896;40;20265;31
2023/09/12 23:28:12;;;;;;;4.97;3.08;;;;;;;23.94;63.71;98925.87;7301036;39;20327;31
2023/09/12 23:33:32;;;;;;;5.37;3.00;;;;;;;23.96;62.30;98938.28;7301267;39;20262;31
2023/09/12 23:38:52;;;;;;;3.57;2.93;;;;;;;23.86;62.63;98929.94;7324625;39;20266;31
2023/09/12 23:44:31;;;;;;;3.17;2.78;;;;;;;23.72;63.03;98931.41;7338990;39;20259;31
2023/09/12 23:50:06;;;;;;;3.20;2.90;;;;;;;23.64;64.07;98934.63;7279183;39;20245;31
2023/09/12 23:55:27;;;;;;;7.55;3.40;;;;;;;23.67;63.40;98918.44;7236451;40;20268;31
